Time;durP1;ratioP1;P1;durP2;ratioP2;P2;SDS_P1;SDS_P2;PMS_P1;PMS_P2;Temp;Humidity;BMP_temperature;BMP_pressure;BME280_temperature;BME280_humidity;BME280_pressure;Samples;Min_cycle;Max_cycle;Signal;HPM_P1;HPM_P2
2023/01/19 00:00:48;;;;;;;11.57;6.20;;;-1.10;91.00;;;2.38;50.49;96503.31;5030217;28;20050;-40
2023/01/19 00:03:16;;;;;;;10.43;5.33;;;-1.10;90.80;;;2.36;50.61;96511.34;5029643;28;20046;-41
2023/01/19 00:05:45;;;;;;;10.57;5.67;;;-1.20;90.80;;;2.33;50.15;96517.69;5029714;28;20048;-40
2023/01/19 00:08:13;;;;;;;10.47;5.57;;;-1.20;91.60;;;2.29;50.31;96515.50;5029710;28;20037;-40
2023/01/19 00:10:45;;;;;;;9.97;5.67;;;-1.20;91.50;;;2.31;50.49;96521.44;5030306;28;20409;-40
2023/01/19 00:13:13;;;;;;;10.53;5.57;;;-1.10;91.80;;;2.32;50.60;96513.41;5029418;28;20045;-40
2023/01/19 00:15:42;;;;;;;8.10;5.37;;;-1.10;91.00;;;2.30;50.78;96506.63;5030359;28;20033;-40
2023/01/19 00:18:10;;;;;;;10.30;5.43;;;-1.20;91.00;;;2.30;50.30;96514.50;5029272;28;20414;-40
2023/01/19 00:20:39;;;;;;;10.27;6.20;;;-1.20;91.50;;;2.28;50.93;96517.28;5028821;28;20044;-41
2023/01/19 00:23:07;;;;;;;7.90;5.43;;;-1.20;91.10;;;2.26;50.58;96513.97;5030392;28;20045;-40
2023/01/19 00:25:43;;;;;;;9.70;5.53;;;-1.20;91.20;;;2.26;50.50;96518.38;5029378;28;20037;-40
2023/01/19 00:28:14;;;;;;;8.13;5.70;;;-1.20;90.70;;;2.25;50.52;96519.34;5030470;28;20412;-40
2023/01/19 00:30:43;;;;;;;9.47;5.07;;;-1.20;91.10;;;2.20;51.00;96514.50;5030154;28;20037;-41
2023/01/19 00:33:14;;;;;;;9.20;5.23;;;-1.30;90.60;;;2.20;50.94;96519.75;5029001;28;20050;-41
2023/01/19 00:35:42;;;;;;;8.60;4.83;;;-1.20;90.90;;;2.22;50.46;96520.44;5029616;28;20540;-40
2023/01/19 00:38:11;;;;;;;6.13;4.10;;;-1.20;90.80;;;2.18;50.69;96526.94;5030550;28;20045;-40
2023/01/19 00:40:39;;;;;;;11.10;5.50;;;-1.30;90.50;;;2.19;50.98;96522.50;5028050;28;20523;-40
2023/01/19 00:43:07;;;;;;;12.73;5.87;;;-1.30;91.30;;;2.17;50.61;96528.75;5030387;28;20041;-40
2023/01/19 00:45:34;;;;;;;8.53;5.53;;;-1.30;90.90;;;2.19;50.51;96526.00;5030166;28;20045;-40
2023/01/19 00:48:03;;;;;;;9.23;5.43;;;-1.30;91.10;;;2.19;50.79;96520.75;5030060;28;20054;-40
2023/01/19 00:50:32;;;;;;;9.27;4.97;;;-1.20;90.50;;;2.19;50.48;96526.00;5012699;28;20049;-40
2023/01/19 00:53:00;;;;;;;10.57;5.40;;;-1.20;90.00;;;2.18;50.19;96526.94;5029330;28;20033;-40
2023/01/19 00:55:32;;;;;;;10.40;5.73;;;-1.30;90.00;;;2.17;50.32;96528.75;5023225;28;20037;-39
2023/01/19 00:58:01;;;;;;;7.47;4.83;;;-1.30;90.10;;;2.17;50.59;96520.03;5029674;28;20046;-48
2023/01/19 01:00:29;;;;;;;7.27;5.20;;;-1.30;90.00;;;2.13;50.53;96521.25;5028741;28;20042;-47
2023/01/19 01:02:57;;;;;;;10.30;5.73;;;-1.30;90.70;;;2.12;50.47;96530.13;5029316;28;20512;-47
2023/01/19 01:05:26;;;;;;;8.80;4.83;;;-1.30;90.40;;;2.11;50.46;96518.78;5029217;28;20045;-47
2023/01/19 01:07:54;;;;;;;7.73;5.00;;;-1.30;89.70;;;2.13;50.51;96537.00;5031048;28;20042;-47
2023/01/19 01:10:26;;;;;;;9.33;4.90;;;-1.30;89.90;;;2.14;50.74;96525.56;5033368;28;20049;-46
2023/01/19 01:12:54;;;;;;;9.90;5.20;;;-1.30;90.10;;;2.14;50.28;96533.44;5033481;28;20064;-46
2023/01/19 01:15:42;;;;;;;9.63;5.13;;;-1.30;89.80;;;2.14;50.40;96531.63;5026575;28;20045;-47
2023/01/19 01:18:10;;;;;;;9.57;5.40;;;-1.30;90.10;;;2.16;50.71;96537.56;5033505;28;20054;-48
2023/01/19 01:20:38;;;;;;;8.90;5.63;;;-1.20;89.60;;;2.17;50.14;96530.53;5033205;28;20113;-44
2023/01/19 01:23:06;;;;;;;7.73;5.27;;;-1.20;88.90;;;2.16;50.86;96536.75;5032160;28;20053;-45
2023/01/19 01:25:36;;;;;;;7.80;4.37;;;-1.20;88.60;;;2.14;50.08;96542.13;5032543;28;20049;-49
2023/01/19 01:28:07;;;;;;;9.53;5.00;;;-1.20;88.30;;;2.11;50.28;96538.94;5032545;28;20033;-50
2023/01/19 01:30:38;;;;;;;8.33;5.03;;;-1.30;89.00;;;2.09;50.47;96536.44;5032981;28;20037;-46
2023/01/19 01:33:07;;;;;;;8.50;5.30;;;-1.30;88.60;;;2.12;50.07;96532.75;5032075;28;20421;-46
2023/01/19 01:35:35;;;;;;;11.47;5.60;;;-1.20;88.60;;;2.11;49.88;96542.44;5033070;28;20041;-46
2023/01/19 01:38:03;;;;;;;7.67;5.27;;;-1.30;88.00;;;2.09;49.85;96536.44;5033397;28;20053;-47
2023/01/19 01:40:31;;;;;;;10.23;5.80;;;-1.30;88.00;;;2.07;49.87;96541.00;5030235;28;20041;-44
2023/01/19 01:42:58;;;;;;;11.63;5.30;;;-1.30;88.40;;;2.04;50.11;96543.91;5033369;28;20053;-47
2023/01/19 01:45:34;;;;;;;11.70;5.80;;;-1.30;88.30;;;2.05;50.43;96553.44;5015882;28;20497;-40
2023/01/19 01:48:25;;;;;;;7.33;4.57;;;-1.30;87.80;;;1.92;50.68;96553.72;5031923;28;20520;-40
2023/01/19 01:53:58;;;;;;;9.20;5.20;;;-1.40;87.70;;;1.95;50.27;96553.41;5032226;28;20401;-40
2023/01/19 01:56:51;;;;;;;8.53;5.20;;;-1.40;87.70;;;1.94;50.17;96553.59;5031802;28;20429;-40
2023/01/19 01:59:25;;;;;;;8.23;4.80;;;-1.30;87.70;;;2.00;50.00;96552.19;5031481;28;20057;-41
2023/01/19 02:05:09;;;;;;;6.83;4.27;;;-1.30;87.00;;;1.97;49.93;96559.38;5034633;28;20413;-40
2023/01/19 02:13:23;;;;;;;9.43;3.83;;;-1.40;87.20;;;1.97;50.24;96548.03;5032564;28;20056;-40
2023/01/19 02:15:56;;;;;;;8.50;4.87;;;-1.40;87.10;;;1.94;50.22;96550.94;5033099;28;20409;-41
2023/01/19 02:18:29;;;;;;;8.25;4.35;;;-1.40;86.80;;;1.93;50.04;96547.47;5031144;28;20415;-40
2023/01/19 02:21:23;;;;;;;8.60;4.90;;;-1.40;86.80;;;1.90;50.09;96541.66;5030930;28;20064;-40
2023/01/19 02:23:56;;;;;;;9.30;5.18;;;-1.50;86.90;;;1.91;49.72;96536.28;5026325;28;20501;-40
2023/01/19 02:26:33;;;;;;;7.57;4.40;;;-1.40;87.20;;;1.90;50.11;96549.53;5031160;28;20068;-40
2023/01/19 02:29:06;;;;;;;7.97;4.87;;;-1.50;86.60;;;1.90;49.95;96547.75;5030889;28;20049;-40
2023/01/19 02:31:37;;;;;;;11.40;5.60;;;-1.50;86.90;;;1.89;50.12;96545.25;5031805;28;20048;-40
2023/01/19 02:34:09;;;;;;;8.10;4.40;;;-1.50;86.90;;;1.87;50.30;96547.19;5030880;28;20064;-39
2023/01/19 02:36:49;;;;;;;8.60;4.77;;;-1.50;87.30;;;1.80;49.95;96546.88;5023627;28;20504;-40
2023/01/19 02:39:29;;;;;;;8.00;5.07;;;-1.50;87.20;;;1.84;49.88;96540.44;5031585;28;20366;-39
2023/01/19 02:42:09;;;;;;;7.17;4.03;;;-1.50;87.30;;;1.84;50.14;96537.81;5030378;28;20076;-40
2023/01/19 02:44:39;;;;;;;9.07;5.07;;;-1.50;87.30;;;1.82;50.39;96542.34;5024665;28;20041;-39
2023/01/19 02:47:07;;;;;;;9.07;5.30;;;-1.50;87.10;;;1.83;50.27;96546.63;5029703;28;20045;-40
2023/01/19 02:49:35;;;;;;;9.00;4.57;;;-1.50;87.30;;;1.82;50.45;96547.56;5031545;28;20101;-41
2023/01/19 02:52:03;;;;;;;10.03;4.80;;;-1.50;87.60;;;1.85;50.33;96544.69;5031483;28;20048;-39
2023/01/19 02:54:59;;;;;;;8.30;4.93;;;-1.50;88.10;;;1.79;50.40;96544.41;5031180;28;20496;-40
2023/01/19 02:58:00;;;;;;;9.83;4.40;;;-1.50;87.40;;;1.79;50.63;96550.50;5031612;28;20045;-39
2023/01/19 03:01:14;;;;;;;6.77;4.47;;;-1.50;87.90;;;1.79;50.19;96547.88;5031111;28;20045;-40
2023/01/19 03:03:54;;;;;;;7.90;4.00;;;-1.50;87.50;;;1.86;50.43;96546.38;5021033;28;20057;-40
2023/01/19 03:06:42;;;;;;;7.47;4.30;;;-1.50;87.20;;;1.79;50.11;96547.03;5030306;28;20045;-41
2023/01/19 03:09:25;;;;;;;8.87;4.57;;;-1.50;87.30;;;1.86;50.45;96550.78;5022456;28;20068;-40
2023/01/19 03:12:25;;;;;;;5.83;4.30;;;-1.50;87.80;;;1.84;50.61;96548.31;5031174;28;20064;-39
2023/01/19 03:15:02;;;;;;;6.93;3.83;;;-1.50;87.60;;;1.84;50.32;96550.94;5025853;28;20366;-39
2023/01/19 03:17:33;;;;;;;6.70;4.03;;;-1.50;87.70;;;1.85;50.17;96555.19;5030125;28;20081;-39
2023/01/19 03:20:03;;;;;;;8.70;4.27;;;-1.50;87.80;;;1.89;50.24;96553.13;5029778;28;20058;-40
2023/01/19 03:22:33;;;;;;;8.93;4.87;;;-1.50;88.00;;;1.89;50.01;96551.34;5030758;28;20056;-40
2023/01/19 03:25:01;;;;;;;8.17;4.23;;;-1.40;87.80;;;1.94;50.15;96550.94;5029981;28;20049;-39
2023/01/19 03:27:39;;;;;;;5.07;3.93;;;-1.40;87.80;;;1.96;50.09;96551.66;5029900;28;20045;-39
2023/01/19 03:30:17;;;;;;;8.13;4.43;;;-1.40;87.00;;;1.94;49.75;96546.53;5029122;28;20038;-40
2023/01/19 03:33:00;;;;;;;10.57;4.50;;;-1.40;86.70;;;1.92;49.87;96545.84;5023025;28;20049;-40
2023/01/19 03:35:33;;;;;;;6.60;4.82;;;-1.40;86.50;;;1.94;50.17;96550.94;5029939;28;20088;-40
2023/01/19 03:38:08;;;;;;;6.07;4.20;;;-1.40;86.70;;;1.94;49.59;96549.16;5029874;28;20048;-40
2023/01/19 03:40:37;;;;;;;5.90;4.20;;;-1.50;87.30;;;1.94;50.42;96548.34;5005890;28;20045;-40
2023/01/19 03:43:06;;;;;;;6.43;4.27;;;-1.50;87.00;;;1.93;50.06;96550.09;5029769;28;20056;-40
2023/01/19 03:45:38;;;;;;;9.87;4.83;;;-1.40;87.30;;;1.93;49.97;96552.72;5028766;28;20113;-49
2023/01/19 03:48:06;;;;;;;9.13;5.07;;;-1.40;86.90;;;1.91;50.33;96546.78;5029777;28;20421;-41
2023/01/19 03:50:34;;;;;;;7.17;4.83;;;-1.50;86.80;;;1.89;49.85;96547.88;5030210;28;20038;-40
2023/01/19 03:53:12;;;;;;;8.83;4.40;;;-1.50;86.70;;;1.86;50.55;96550.78;5030842;28;20048;-40
2023/01/19 03:55:44;;;;;;;7.87;4.10;;;-1.50;87.00;;;1.85;50.37;96557.00;5023278;28;20496;-39
2023/01/19 03:58:12;;;;;;;7.43;4.87;;;-1.50;86.90;;;1.84;50.17;96550.94;5029580;28;20045;-40
2023/01/19 04:00:40;;;;;;;6.60;4.33;;;-1.50;87.00;;;1.80;50.05;96553.94;5029039;28;20509;-39
2023/01/19 04:03:14;;;;;;;6.70;4.50;;;-1.60;87.30;;;1.81;49.79;96558.22;5030971;28;20424;-40
2023/01/19 04:05:43;;;;;;;6.63;4.40;;;-1.60;87.50;;;1.81;50.38;96563.47;5023552;28;20519;-40
2023/01/19 04:08:11;;;;;;;6.73;3.93;;;-1.50;87.40;;;1.82;50.14;96565.13;5030459;28;20117;-40
2023/01/19 04:10:39;;;;;;;5.83;4.10;;;-1.50;87.50;;;1.83;49.89;96567.63;5021173;28;20042;-40
2023/01/19 04:13:07;;;;;;;10.07;4.77;;;-1.50;86.90;;;1.85;50.18;96572.75;5029207;28;20508;-40
2023/01/19 04:15:35;;;;;;;7.37;4.27;;;-1.50;86.50;;;1.83;49.91;96572.88;5029495;28;20331;-40
2023/01/19 04:18:04;;;;;;;6.77;4.30;;;-1.50;87.00;;;1.77;50.35;96574.22;5029589;28;20045;-40
2023/01/19 04:20:32;;;;;;;9.07;4.63;;;-1.50;86.60;;;1.79;50.43;96566.22;5030088;28;20041;-40
2023/01/19 04:23:00;;;;;;;5.83;3.77;;;-1.50;87.20;;;1.81;50.03;96576.59;5030428;28;20054;-41
2023/01/19 04:25:29;;;;;;;8.47;4.73;;;-1.50;86.90;;;1.78;50.43;96572.44;5030908;28;20053;-41
2023/01/19 04:27:59;;;;;;;7.90;4.80;;;-1.50;86.70;;;1.82;50.17;96580.88;5030460;28;20657;-40
2023/01/19 04:30:28;;;;;;;8.67;3.97;;;-1.50;86.50;;;1.85;50.32;96578.00;5029994;28;20405;-39
2023/01/19 04:32:58;;;;;;;9.93;5.13;;;-1.50;86.30;;;1.84;50.44;96581.56;5029555;28;20038;-40
2023/01/19 04:35:27;;;;;;;10.33;5.57;;;-1.50;86.70;;;1.83;50.35;96583.38;5030354;28;20038;-39
2023/01/19 04:37:55;;;;;;;9.03;3.90;;;-1.40;86.10;;;1.89;50.49;96576.75;5029523;28;20461;-41
2023/01/19 04:40:23;;;;;;;7.90;4.07;;;-1.40;85.20;;;1.94;50.27;96571.97;5027383;28;20444;-40
2023/01/19 04:42:51;;;;;;;7.70;3.97;;;-1.40;85.90;;;1.89;50.22;96582.00;5031744;28;20416;-39
2023/01/19 04:45:18;;;;;;;6.47;3.30;;;-1.40;85.60;;;1.91;49.72;96580.91;5033164;28;20049;-40
2023/01/19 04:47:46;;;;;;;6.23;3.80;;;-1.40;85.50;;;1.93;49.89;96578.97;5034172;28;20038;-40
2023/01/19 04:50:14;;;;;;;8.93;5.23;;;-1.40;85.20;;;1.97;50.03;96582.16;5033774;28;20049;-40
2023/01/19 04:52:42;;;;;;;8.00;4.10;;;-1.40;85.30;;;1.99;49.91;96588.13;5033913;28;20045;-40
2023/01/19 04:55:10;;;;;;;6.80;3.73;;;-1.40;85.40;;;1.97;49.52;96584.78;5034155;28;20433;-40
2023/01/19 04:57:38;;;;;;;6.13;3.97;;;-1.40;85.10;;;1.94;49.49;96585.09;5016410;28;20038;-40
2023/01/19 05:00:07;;;;;;;6.87;3.47;;;-1.40;85.10;;;1.96;50.02;96591.84;5032341;28;20468;-40
2023/01/19 05:02:35;;;;;;;7.77;4.40;;;-1.40;85.40;;;1.97;50.24;96590.03;5032232;28;20717;-40
2023/01/19 05:05:04;;;;;;;6.37;3.53;;;-1.40;85.30;;;1.94;49.67;96587.72;5033916;28;20049;-40
2023/01/19 05:07:32;;;;;;;6.37;3.60;;;-1.40;85.30;;;1.97;49.77;96595.28;5016300;28;20061;-40
2023/01/19 05:10:00;;;;;;;6.70;3.30;;;-1.40;85.40;;;2.00;49.90;96589.78;5033453;28;20041;-39
2023/01/19 05:12:28;;;;;;;7.20;3.83;;;-1.40;85.90;;;2.04;49.71;96596.44;5033068;28;20101;-40
2023/01/19 05:14:56;;;;;;;6.43;4.37;;;-1.30;85.50;;;2.06;49.53;96599.75;5033738;28;20394;-39
2023/01/19 05:17:24;;;;;;;6.10;3.90;;;-1.30;85.70;;;2.09;49.96;96591.59;5033640;28;20050;-40
2023/01/19 05:19:51;;;;;;;7.33;4.27;;;-1.30;85.40;;;2.13;49.65;96603.50;5033344;28;20053;-40
2023/01/19 05:22:19;;;;;;;6.23;4.27;;;-1.30;85.70;;;2.14;49.63;96606.97;5033490;28;20042;-46
2023/01/19 05:24:47;;;;;;;4.97;3.13;;;-1.20;85.30;;;2.12;49.68;96606.28;5032428;28;20056;-47
2023/01/19 05:27:15;;;;;;;7.53;4.53;;;-1.30;85.20;;;2.07;50.12;96606.66;5033877;28;20068;-46
2023/01/19 05:29:43;;;;;;;6.00;3.87;;;-1.30;85.40;;;2.09;49.86;96609.16;5032632;28;20535;-46
2023/01/19 05:32:12;;;;;;;5.50;4.00;;;-1.30;85.80;;;2.07;49.93;96606.66;5033357;28;20049;-46
2023/01/19 05:34:40;;;;;;;7.37;3.87;;;-1.30;85.80;;;2.06;49.78;96609.44;5031999;28;20037;-47
2023/01/19 05:37:08;;;;;;;5.87;4.10;;;-1.30;85.60;;;2.08;49.67;96616.19;5033343;28;20405;-44
2023/01/19 05:39:36;;;;;;;8.60;4.27;;;-1.30;85.40;;;2.04;49.57;96616.63;5032795;28;20057;-49
2023/01/19 05:42:04;;;;;;;7.47;4.13;;;-1.40;85.20;;;2.03;49.85;96607.88;5015152;28;20050;-46
2023/01/19 05:44:32;;;;;;;6.90;5.33;;;-1.40;85.10;;;2.04;49.60;96606.94;5032781;28;20401;-49
2023/01/19 05:46:59;;;;;;;7.37;4.50;;;-1.40;85.50;;;2.02;49.63;96614.13;5033247;28;20050;-47
2023/01/19 05:49:27;;;;;;;7.60;5.40;;;-1.40;85.20;;;2.00;49.85;96616.03;5031342;28;20049;-47
2023/01/19 05:51:55;;;;;;;9.27;5.70;;;-1.40;85.50;;;1.97;49.47;96616.28;5031334;28;20080;-46
2023/01/19 05:54:23;;;;;;;7.30;4.73;;;-1.40;85.90;;;1.95;49.97;96619.06;5032053;28;20045;-46
2023/01/19 05:56:51;;;;;;;8.80;4.60;;;-1.50;85.50;;;1.93;49.22;96622.78;5032812;28;20485;-45
2023/01/19 05:59:22;;;;;;;8.13;4.37;;;-1.50;86.00;;;1.90;49.79;96630.91;5032432;28;20049;-49
2023/01/19 06:01:51;;;;;;;8.03;5.07;;;-1.50;85.90;;;1.92;49.61;96634.22;5031254;28;20045;-49
2023/01/19 06:04:20;;;;;;;6.00;4.07;;;-1.50;86.30;;;1.90;50.07;96636.16;5031515;28;20045;-49
2023/01/19 06:06:49;;;;;;;6.13;3.97;;;-1.50;86.00;;;1.86;50.17;96642.63;5032583;28;20038;-47
2023/01/19 06:09:17;;;;;;;7.10;4.47;;;-1.50;86.40;;;1.90;50.11;96639.63;5032227;28;20413;-44
2023/01/19 06:11:45;;;;;;;8.70;4.60;;;-1.40;86.20;;;1.87;50.41;96644.31;5032435;28;20390;-47
2023/01/19 06:14:13;;;;;;;7.80;4.67;;;-1.50;85.70;;;1.95;50.03;96652.34;5032334;28;20053;-49
2023/01/19 06:16:41;;;;;;;6.77;4.40;;;-1.40;86.10;;;2.04;49.78;96651.56;5032567;28;20052;-45
2023/01/19 06:19:09;;;;;;;7.57;4.33;;;-1.40;86.00;;;2.06;50.54;96648.81;5032277;28;20053;-48
2023/01/19 06:21:37;;;;;;;7.70;4.57;;;-1.30;85.60;;;2.13;49.85;96650.78;5032140;28;20424;-44
2023/01/19 06:24:05;;;;;;;8.13;4.57;;;-1.30;85.90;;;2.22;49.87;96653.56;5031140;28;20425;-46
2023/01/19 06:26:33;;;;;;;6.77;4.13;;;-1.20;85.60;;;2.26;49.99;96655.78;5031101;28;20050;-48
2023/01/19 06:29:01;;;;;;;8.73;5.33;;;-1.20;85.50;;;2.29;50.02;96655.53;5030684;28;20045;-47
2023/01/19 06:31:29;;;;;;;8.03;4.93;;;-1.20;85.30;;;2.31;50.11;96665.91;5030692;28;20528;-45
2023/01/19 06:33:57;;;;;;;9.20;5.07;;;-1.10;85.90;;;2.40;49.60;96654.56;5030467;28;20049;-46
2023/01/19 06:36:25;;;;;;;7.77;4.40;;;-1.00;85.70;;;2.39;49.87;96660.81;5031986;28;20045;-47
2023/01/19 06:38:53;;;;;;;8.10;4.87;;;-1.10;85.30;;;2.38;49.61;96660.94;5031802;28;20497;-45
2023/01/19 06:41:20;;;;;;;6.90;4.67;;;-1.10;85.00;;;2.35;50.03;96657.59;5030144;28;20049;-47
2023/01/19 06:43:48;;;;;;;6.87;4.43;;;-1.10;85.20;;;2.36;49.86;96655.81;5031873;28;20050;-44
2023/01/19 06:46:16;;;;;;;8.07;4.63;;;-1.10;84.90;;;2.34;49.25;96653.31;5031584;28;20057;-45
2023/01/19 06:48:44;;;;;;;7.93;4.83;;;-1.20;85.30;;;2.36;49.54;96653.19;5030117;28;20148;-45
2023/01/19 06:51:12;;;;;;;9.20;4.73;;;-1.10;85.30;;;2.31;49.98;96664.09;5031784;28;20044;-47
2023/01/19 06:53:39;;;;;;;6.57;4.60;;;-1.10;85.10;;;2.31;49.35;96656.22;5031574;28;20045;-47
2023/01/19 06:56:08;;;;;;;7.83;4.90;;;-1.10;85.00;;;2.28;49.42;96663.53;5030932;28;20045;-45
2023/01/19 06:58:36;;;;;;;7.00;4.27;;;-1.10;84.70;;;2.26;49.34;96665.47;5031829;28;20420;-45
2023/01/19 07:01:06;;;;;;;8.60;5.50;;;-1.20;84.90;;;2.24;49.32;96662.13;5031478;28;20365;-45
2023/01/19 07:03:35;;;;;;;10.10;4.83;;;-1.20;85.00;;;2.20;49.51;96658.94;5030305;28;20257;-48
2023/01/19 07:06:07;;;;;;;7.23;4.57;;;-1.20;84.90;;;2.20;49.96;96666.00;5030218;28;20057;-45
2023/01/19 07:08:36;;;;;;;8.87;5.00;;;-1.30;85.20;;;2.19;49.96;96664.31;5031313;28;20052;-46
2023/01/19 07:11:07;;;;;;;7.77;4.73;;;-1.30;85.00;;;2.19;49.58;96664.31;5031147;28;20048;-48
2023/01/19 07:13:55;;;;;;;7.80;4.37;;;-1.20;84.90;;;2.18;49.46;96660.88;5024289;28;20050;-47
2023/01/19 07:16:23;;;;;;;9.90;4.70;;;-1.20;84.80;;;2.16;49.66;96657.56;5030164;28;20049;-49
2023/01/19 07:18:51;;;;;;;8.83;4.60;;;-1.20;85.00;;;2.16;49.93;96658.38;5030896;28;20038;-48
2023/01/19 07:21:19;;;;;;;7.40;4.73;;;-1.20;84.80;;;2.13;49.28;96652.56;5031123;28;20049;-48
2023/01/19 07:23:51;;;;;;;9.97;5.23;;;-1.30;84.60;;;2.13;49.90;96656.03;5031592;28;20052;-47
2023/01/19 07:26:20;;;;;;;6.87;4.73;;;-1.20;84.50;;;2.15;49.37;96661.13;5031090;28;20052;-47
2023/01/19 07:28:48;;;;;;;8.77;4.90;;;-1.30;84.70;;;2.13;49.42;96653.41;5029645;28;20409;-45
2023/01/19 07:31:17;;;;;;;8.00;5.07;;;-1.20;85.50;;;2.13;49.46;96658.66;5029349;28;20042;-46
2023/01/19 07:33:46;;;;;;;8.20;5.13;;;-1.30;84.40;;;2.14;49.63;96670.81;5031001;28;20037;-49
2023/01/19 07:36:14;;;;;;;7.20;4.40;;;-1.20;84.60;;;2.11;49.45;96678.97;5030793;28;20057;-49
2023/01/19 07:38:41;;;;;;;8.07;4.60;;;-1.30;84.60;;;2.09;49.45;96670.34;5022622;28;20053;-45
2023/01/19 07:41:10;;;;;;;8.67;5.87;;;-1.30;84.60;;;2.12;49.42;96677.16;5027931;28;20080;-45
2023/01/19 07:43:38;;;;;;;7.73;4.57;;;-1.30;84.80;;;2.13;49.58;96678.81;5029876;28;20543;-44
2023/01/19 07:46:07;;;;;;;7.67;4.57;;;-1.30;84.90;;;2.12;49.64;96670.09;5030858;28;20048;-45
2023/01/19 07:48:35;;;;;;;5.70;4.07;;;-1.30;84.60;;;2.13;49.31;96679.66;5030895;28;20061;-47
2023/01/19 07:51:07;;;;;;;6.83;4.60;;;-1.30;84.90;;;2.15;49.98;96682.13;5029255;28;20071;-46
2023/01/19 07:53:40;;;;;;;8.50;5.00;;;-1.20;84.40;;;2.14;49.53;96669.97;5029602;28;20039;-45
2023/01/19 07:56:08;;;;;;;7.07;4.43;;;-1.20;84.20;;;2.20;49.41;96681.75;5030672;28;20046;-50
2023/01/19 07:58:37;;;;;;;7.50;4.87;;;-1.20;84.30;;;2.21;49.04;96684.25;5030413;28;20072;-44
2023/01/19 08:01:08;;;;;;;8.07;4.70;;;-1.20;84.40;;;2.23;49.56;96691.97;5029357;28;20057;-45
2023/01/19 08:03:36;;;;;;;7.20;4.03;;;-1.20;84.40;;;2.21;49.15;96686.03;5030363;28;20489;-44
2023/01/19 08:06:06;;;;;;;7.80;4.57;;;-1.20;84.00;;;2.23;49.62;96694.59;5029610;28;20053;-46
2023/01/19 08:08:33;;;;;;;8.93;4.43;;;-1.10;84.20;;;2.27;49.39;96702.09;5029528;28;20420;-47
2023/01/19 08:11:01;;;;;;;7.07;4.47;;;-1.10;84.20;;;2.28;49.52;96701.13;5030138;28;20042;-46
2023/01/19 08:13:29;;;;;;;9.40;4.77;;;-1.10;83.90;;;2.31;49.21;96703.50;5030587;28;20416;-45
2023/01/19 08:15:57;;;;;;;5.73;4.37;;;-1.10;84.50;;;2.31;49.67;96700.88;5012642;28;20057;-47
2023/01/19 08:18:25;;;;;;;6.70;4.80;;;-1.10;84.30;;;2.33;49.77;96706.81;5033269;28;20049;-47
2023/01/19 08:20:53;;;;;;;7.27;4.00;;;-1.10;84.30;;;2.38;49.82;96711.66;5034234;28;20042;-47
2023/01/19 08:23:20;;;;;;;6.93;4.00;;;-1.10;84.40;;;2.39;49.40;96710.72;5034574;28;20049;-47
2023/01/19 08:25:48;;;;;;;6.53;3.90;;;-1.00;84.40;;;2.47;49.37;96707.41;5034158;28;20053;-45
2023/01/19 08:28:17;;;;;;;7.07;3.73;;;-1.00;84.00;;;2.53;49.34;96709.50;5034346;28;20072;-45
2023/01/19 08:30:52;;;;;;;7.37;4.10;;;-0.90;84.10;;;2.61;49.29;96711.47;5032736;28;20042;-48
2023/01/19 08:33:22;;;;;;;5.60;3.70;;;-0.80;83.70;;;2.65;49.34;96702.34;5034242;28;20433;-45
2023/01/19 08:35:52;;;;;;;7.57;3.87;;;-0.80;83.40;;;2.69;49.33;96704.56;5034332;28;20037;-47
2023/01/19 08:38:21;;;;;;;6.27;4.20;;;-0.70;83.20;;;2.69;49.07;96701.94;5034544;28;20089;-45
2023/01/19 08:40:49;;;;;;;6.00;3.43;;;-0.70;83.50;;;2.74;49.40;96719.94;5034097;28;20037;-45
2023/01/19 08:43:17;;;;;;;6.43;4.17;;;-0.70;83.60;;;2.83;49.44;96721.78;5016625;28;20052;-48
2023/01/19 08:45:50;;;;;;;5.97;4.00;;;-0.60;83.60;;;2.91;49.65;96729.81;5032690;28;20056;-48
2023/01/19 08:48:21;;;;;;;6.72;3.92;;;-0.50;82.90;;;2.97;49.19;96725.81;5034212;28;20061;-48
2023/01/19 08:50:51;;;;;;;7.57;4.10;;;-0.40;83.10;;;3.02;49.33;96720.94;5033589;28;20044;-46
2023/01/19 08:53:19;;;;;;;5.47;3.47;;;-0.40;83.00;;;3.07;48.97;96712.66;5032693;28;20072;-46
2023/01/19 08:55:48;;;;;;;5.87;3.73;;;-0.40;82.50;;;3.10;49.28;96715.00;5032540;28;20046;-44
2023/01/19 08:58:17;;;;;;;7.47;4.23;;;-0.30;83.10;;;3.21;49.13;96716.69;5034305;28;20053;-48
2023/01/19 09:00:47;;;;;;;8.30;4.03;;;-0.20;82.80;;;3.31;49.09;96718.31;5033524;28;20421;-50
2023/01/19 09:03:15;;;;;;;5.60;3.63;;;-0.10;83.00;;;3.42;49.20;96721.81;5033623;28;20432;-48
2023/01/19 09:05:43;;;;;;;6.17;3.43;;;0.00;82.20;;;3.47;49.20;96723.06;5026066;28;20421;-46
2023/01/19 09:08:13;;;;;;;6.80;4.03;;;0.10;81.70;;;3.53;48.96;96719.84;5033407;28;20324;-48
2023/01/19 09:10:50;;;;;;;5.37;3.40;;;0.10;81.80;;;3.56;49.14;96726.63;5033186;28;20049;-47
2023/01/19 09:13:19;;;;;;;8.63;4.10;;;0.10;81.60;;;3.64;49.09;96734.66;5033632;28;20052;-45
2023/01/19 09:15:47;;;;;;;6.27;3.60;;;0.10;81.80;;;3.65;48.79;96741.59;5032462;28;20057;-45
2023/01/19 09:18:18;;;;;;;5.77;3.70;;;0.20;80.50;;;3.70;48.83;96733.25;5016574;28;20049;-45
2023/01/19 09:20:48;;;;;;;4.80;3.67;;;0.20;81.20;;;3.75;48.90;96733.69;5032994;28;20041;-45
2023/01/19 09:23:19;;;;;;;6.60;4.13;;;0.20;81.70;;;3.82;48.63;96733.94;5032409;28;20052;-45
2023/01/19 09:25:48;;;;;;;6.57;4.00;;;0.30;81.80;;;3.87;48.64;96732.53;5025235;28;20057;-48
2023/01/19 09:28:16;;;;;;;8.97;3.97;;;0.30;81.70;;;4.00;48.85;96728.81;5032695;28;20045;-46
2023/01/19 09:30:44;;;;;;;6.30;4.47;;;0.40;81.50;;;4.04;48.18;96744.16;5025189;28;20068;-47
2023/01/19 09:33:16;;;;;;;7.07;4.13;;;0.50;81.30;;;4.10;49.02;96730.41;5019829;28;20057;-47
2023/01/19 09:35:46;;;;;;;7.20;4.07;;;0.60;81.00;;;4.12;48.24;96722.38;5015369;28;20037;-47
2023/01/19 09:38:18;;;;;;;5.33;3.47;;;0.60;81.20;;;4.13;48.44;96724.88;5032281;28;20121;-48
2023/01/19 09:40:54;;;;;;;5.10;3.90;;;0.60;80.60;;;4.17;48.07;96735.09;5025291;28;20041;-48
2023/01/19 09:44:08;;;;;;;8.30;4.63;;;0.50;80.70;;;4.17;48.40;96735.09;5005162;28;20049;-48
2023/01/19 09:46:40;;;;;;;7.20;4.17;;;0.60;80.90;;;4.22;48.24;96736.34;5020675;28;20050;-46
2023/01/19 09:49:25;;;;;;;6.20;3.73;;;0.60;80.80;;;4.26;48.56;96740.34;5027904;28;20045;-47
2023/01/19 09:51:53;;;;;;;5.63;3.53;;;0.70;81.20;;;4.31;48.29;96740.75;5026700;28;20509;-49
2023/01/19 09:54:56;;;;;;;6.30;4.50;;;0.70;80.20;;;4.25;48.50;96743.97;5025651;28;20041;-45
2023/01/19 09:57:26;;;;;;;6.27;4.00;;;0.70;81.20;;;4.33;47.89;96735.34;5025495;28;20049;-46
2023/01/19 09:59:58;;;;;;;5.40;3.30;;;0.70;81.30;;;4.38;47.78;96737.53;5025866;28;20049;-52
2023/01/19 10:03:02;;;;;;;6.87;4.00;;;0.80;80.50;;;4.35;48.12;96736.03;5027011;28;20061;-45
2023/01/19 10:05:43;;;;;;;6.40;3.58;;;0.80;80.60;;;4.39;48.52;96728.66;5025519;28;20421;-47
2023/01/19 10:08:54;;;;;;;7.63;4.77;;;0.80;81.10;;;4.35;48.46;96736.03;5026263;28;20417;-50
2023/01/19 10:11:44;;;;;;;8.33;4.50;;;0.80;80.40;;;4.38;48.40;96740.16;5025693;28;20390;-47
2023/01/19 10:14:41;;;;;;;8.03;3.80;;;0.80;80.80;;;4.38;47.94;96722.56;5026391;28;20045;-50
2023/01/19 10:17:25;;;;;;;8.07;4.17;;;0.80;80.60;;;4.36;48.31;96726.31;5026380;28;20400;-47
2023/01/19 10:19:56;;;;;;;7.10;4.93;;;0.80;80.70;;;4.31;48.22;96716.22;5026622;28;20038;-51
2023/01/19 10:22:27;;;;;;;7.70;3.90;;;0.80;80.60;;;4.27;48.50;96728.03;5025397;28;20049;-52
2023/01/19 10:25:00;;;;;;;7.10;3.73;;;0.70;80.40;;;4.24;48.17;96726.47;5027025;28;20060;-50
2023/01/19 10:27:33;;;;;;;5.78;3.75;;;0.70;80.70;;;4.26;48.48;96727.16;5025973;28;20045;-48
2023/01/19 10:30:01;;;;;;;6.70;3.73;;;0.80;80.30;;;4.26;48.49;96729.81;5025463;28;20049;-47
2023/01/19 10:32:34;;;;;;;7.80;4.03;;;0.80;81.00;;;4.31;48.47;96732.03;5026706;28;20053;-46
2023/01/19 10:35:20;;;;;;;5.82;3.58;;;0.80;81.60;;;4.32;48.27;96737.16;5023623;28;20845;-46
2023/01/19 10:37:55;;;;;;;5.70;3.40;;;0.80;80.50;;;4.39;48.50;96732.13;5024556;28;20046;-46
2023/01/19 10:40:51;;;;;;;6.40;3.60;;;0.90;81.10;;;4.48;48.31;96748.91;5024025;28;20044;-48
2023/01/19 10:43:36;;;;;;;8.00;3.87;;;1.00;80.90;;;4.62;48.34;96737.84;5022258;28;20056;-49
2023/01/19 10:46:07;;;;;;;4.53;3.20;;;1.20;80.20;;;4.81;48.33;96734.28;5022584;28;20670;-48
2023/01/19 10:48:40;;;;;;;6.43;4.07;;;1.30;80.80;;;4.93;47.84;96735.75;5025292;28;20135;-49
2023/01/19 10:51:10;;;;;;;6.17;3.20;;;1.50;80.10;;;4.98;47.60;96737.09;5024669;28;20049;-49
2023/01/19 10:53:37;;;;;;;4.97;3.20;;;1.50;78.70;;;5.02;48.04;96744.59;5025338;28;20583;-51
2023/01/19 10:56:25;;;;;;;6.77;3.60;;;1.50;79.10;;;5.08;48.27;96749.28;5025716;28;20591;-50
2023/01/19 10:58:53;;;;;;;5.87;3.30;;;1.60;79.00;;;5.18;47.55;96745.75;5025211;28;20037;-47